createdAt,value
2023-04-20T00:01:44.785Z,102360.03
2023-04-20T00:04:12.092Z,102358.25
2023-04-20T00:06:39.114Z,102355.06
2023-04-20T00:09:06.116Z,102354.09
2023-04-20T00:11:33.107Z,102347.81
2023-04-20T00:14:00.260Z,102338.03
2023-04-20T00:16:27.415Z,102333.59
2023-04-20T00:18:54.864Z,102330.06
2023-04-20T00:21:24.026Z,102317.44
2023-04-20T00:23:52.429Z,102326.16
2023-04-20T00:26:19.982Z,102320.72
2023-04-20T00:28:47.023Z,102315.50
2023-04-20T00:31:14.062Z,102311.16
2023-04-20T00:33:41.135Z,102299.00
2023-04-20T00:36:08.612Z,102286.47
2023-04-20T00:38:35.739Z,102286.41
2023-04-20T00:41:03.156Z,102282.84
2023-04-20T00:43:30.251Z,102290.47
2023-04-20T00:45:57.390Z,102269.28
2023-04-20T00:48:24.542Z,102270.78
2023-04-20T00:50:52.792Z,102260.41
2023-04-20T00:53:20.390Z,102253.22
2023-04-20T00:55:47.645Z,102256.25
2023-04-20T00:58:14.699Z,102252.69
2023-04-20T01:00:41.752Z,102242.31
2023-04-20T01:03:09.134Z,102244.19
2023-04-20T01:05:36.404Z,102238.41
2023-04-20T01:08:03.572Z,102225.72
2023-04-20T01:10:30.709Z,102229.09
2023-04-20T01:12:57.733Z,102226.25
2023-04-20T01:15:24.806Z,102217.88
2023-04-20T01:17:52.956Z,102213.47
2023-04-20T01:20:20.586Z,102218.25
2023-04-20T01:22:49.508Z,102213.97
2023-04-20T01:25:17.180Z,102201.38
2023-04-20T01:27:44.557Z,102203.88
2023-04-20T01:30:12.518Z,102205.72
2023-04-20T01:32:40.249Z,102188.72
2023-04-20T01:35:09.050Z,102187.97
2023-04-20T01:37:36.332Z,102198.34
2023-04-20T01:40:04.390Z,102174.72
2023-04-20T01:42:31.498Z,102180.06
2023-04-20T01:44:58.514Z,102183.31
2023-04-20T01:47:25.960Z,102178.16
2023-04-20T01:49:53.646Z,102175.66
2023-04-20T01:52:20.690Z,102172.81
2023-04-20T01:54:47.744Z,102169.56
2023-04-20T01:57:14.907Z,102159.09
2023-04-20T01:59:41.944Z,102165.38
2023-04-20T02:02:09.142Z,102167.13
2023-04-20T02:04:36.714Z,102164.44
2023-04-20T02:07:03.744Z,102150.88
2023-04-20T02:09:30.827Z,102150.53
2023-04-20T02:11:58.052Z,102144.13
2023-04-20T02:14:25.074Z,102137.88
2023-04-20T02:16:53.638Z,102140.81
2023-04-20T02:19:21.244Z,102131.56
2023-04-20T02:21:48.321Z,102127.56
2023-04-20T02:24:15.545Z,102115.88
2023-04-20T02:26:42.590Z,102118.44
2023-04-20T02:29:09.707Z,102121.19
2023-04-20T02:31:36.826Z,102114.91
2023-04-20T02:34:06.121Z,102103.91
2023-04-20T02:36:33.246Z,102100.41
2023-04-20T02:39:00.388Z,102096.88
2023-04-20T02:41:27.405Z,102092.75
2023-04-20T02:43:54.476Z,102096.47
2023-04-20T02:46:21.582Z,102081.75
2023-04-20T02:48:48.632Z,102073.13
2023-04-20T02:51:15.694Z,102079.53
2023-04-20T02:53:42.765Z,102078.81
2023-04-20T02:56:09.926Z,102084.53
2023-04-20T02:58:37.367Z,102082.19
2023-04-20T03:01:04.473Z,102083.31
2023-04-20T03:03:31.749Z,102075.66
2023-04-20T03:05:58.852Z,102073.38
2023-04-20T03:08:25.975Z,102073.69
2023-04-20T03:10:54.188Z,102063.53
2023-04-20T03:13:21.462Z,102067.22
2023-04-20T03:15:48.446Z,102058.75
2023-04-20T03:18:15.437Z,102062.53
2023-04-20T03:20:42.574Z,102049.78
2023-04-20T03:23:11.044Z,102049.84
2023-04-20T03:25:38.060Z,102051.41
2023-04-20T03:28:05.208Z,102052.31
2023-04-20T03:30:32.284Z,102047.13
2023-04-20T03:32:59.411Z,102058.47
2023-04-20T03:35:26.993Z,102053.22
2023-04-20T03:37:54.011Z,102055.06
2023-04-20T03:40:21.157Z,102050.00
2023-04-20T03:42:48.365Z,102043.81
2023-04-20T03:45:15.614Z,102041.31
2023-04-20T03:47:42.700Z,102033.28
2023-04-20T03:50:09.928Z,102036.22
2023-04-20T03:52:37.007Z,102039.91
2023-04-20T03:55:04.514Z,102040.63
2023-04-20T03:57:32.831Z,102031.44
2023-04-20T04:00:00.124Z,102025.53
2023-04-20T04:02:27.312Z,102012.56
2023-04-20T04:04:54.580Z,102012.84
2023-04-20T04:07:22.979Z,102016.16
2023-04-20T04:09:50.034Z,102003.28
2023-04-20T04:12:18.122Z,102003.19
2023-04-20T04:14:45.238Z,102002.38
2023-04-20T04:17:14.344Z,102001.44
2023-04-20T04:19:41.698Z,101994.63
2023-04-20T04:22:08.742Z,101996.13
2023-04-20T04:24:37.753Z,101994.50
2023-04-20T04:27:05.521Z,101983.38
2023-04-20T04:29:35.798Z,101978.00
2023-04-20T04:32:04.248Z,101973.56
2023-04-20T04:34:34.811Z,101984.03
2023-04-20T04:37:02.004Z,101981.25
2023-04-20T04:39:30.098Z,101974.25
2023-04-20T04:41:57.710Z,101974.25
2023-04-20T04:44:25.981Z,101970.88
2023-04-20T04:46:53.651Z,101968.63
2023-04-20T04:49:22.381Z,101969.53
2023-04-20T04:51:49.464Z,101965.13
2023-04-20T04:54:16.791Z,101969.00
2023-04-20T04:56:43.775Z,101962.44
2023-04-20T04:59:11.122Z,101985.00
2023-04-20T05:01:38.234Z,101975.34
2023-04-20T05:04:05.674Z,101979.03
2023-04-20T05:06:33.141Z,101981.41
2023-04-20T05:09:00.230Z,101971.81
2023-04-20T05:11:27.259Z,101965.56
2023-04-20T05:13:54.734Z,101963.66
2023-04-20T05:16:22.130Z,101967.25
2023-04-20T05:18:49.342Z,101966.25
2023-04-20T05:21:17.300Z,101965.56
2023-04-20T05:23:44.312Z,101976.03
2023-04-20T05:26:11.270Z,101975.28
2023-04-20T05:28:38.262Z,101960.50
2023-04-20T05:31:06.400Z,101968.34
2023-04-20T05:33:33.545Z,101968.13
2023-04-20T05:36:00.652Z,101967.25
2023-04-20T05:38:27.672Z,101961.88
2023-04-20T05:40:56.468Z,101959.25
2023-04-20T05:43:23.750Z,101970.59
2023-04-20T05:45:50.775Z,101958.63
2023-04-20T05:48:17.815Z,101961.28
2023-04-20T05:50:44.862Z,101964.63
2023-04-20T05:53:11.951Z,101971.72
2023-04-20T05:55:41.352Z,101970.13
2023-04-20T05:58:08.325Z,101969.53
2023-04-20T06:00:35.626Z,101969.53
2023-04-20T06:03:03.954Z,101970.59
2023-04-20T06:05:31.416Z,101962.47
2023-04-20T06:07:58.470Z,101962.34
2023-04-20T06:10:25.737Z,101952.16
2023-04-20T06:12:54.008Z,101953.63
2023-04-20T06:15:21.198Z,101946.53
2023-04-20T06:17:48.500Z,101950.94
2023-04-20T06:20:16.061Z,101936.22
2023-04-20T06:22:47.044Z,101942.19
2023-04-20T06:25:16.003Z,101940.03
2023-04-20T06:27:43.170Z,101954.91
2023-04-20T06:30:11.123Z,101941.69
2023-04-20T06:32:38.487Z,101952.81
2023-04-20T06:35:06.927Z,101945.88
2023-04-20T06:37:35.922Z,101943.47
2023-04-20T06:40:07.989Z,101940.56
2023-04-20T06:42:35.465Z,101933.94
2023-04-20T06:45:03.185Z,101939.78
2023-04-20T06:47:33.754Z,101931.13
2023-04-20T06:50:02.710Z,101935.13
2023-04-20T06:52:31.267Z,101938.06
2023-04-20T06:54:59.787Z,101946.16
2023-04-20T06:57:26.789Z,101941.44
2023-04-20T06:59:53.794Z,101957.25
2023-04-20T07:02:21.244Z,101961.38
2023-04-20T07:04:48.465Z,101956.09
2023-04-20T07:07:17.432Z,101958.88
2023-04-20T07:09:44.556Z,101950.84
2023-04-20T07:12:16.028Z,101952.91
2023-04-20T07:14:43.244Z,101950.56
2023-04-20T07:17:10.289Z,101955.41
2023-04-20T07:19:37.347Z,101954.69
2023-04-20T07:22:04.539Z,101950.66
2023-04-20T07:24:31.790Z,101948.88
2023-04-20T07:26:58.767Z,101947.63
2023-04-20T07:29:26.028Z,101957.22
2023-04-20T07:31:53.784Z,101957.47
2023-04-20T07:34:21.043Z,101961.91
2023-04-20T07:36:48.189Z,101955.16
2023-04-20T07:39:16.153Z,101955.09
2023-04-20T07:41:43.842Z,101959.78
2023-04-20T07:44:13.612Z,101956.69
2023-04-20T07:46:40.824Z,101954.84
2023-04-20T07:49:07.858Z,101962.31
2023-04-20T07:51:35.339Z,101956.22
2023-04-20T07:54:03.308Z,101948.91
2023-04-20T07:56:30.535Z,101942.97
2023-04-20T07:58:57.571Z,101961.28
2023-04-20T08:01:25.744Z,101959.69
2023-04-20T08:03:55.666Z,101963.28
2023-04-20T08:06:23.813Z,101957.59
2023-04-20T08:08:51.308Z,101947.91
2023-04-20T08:11:18.879Z,101938.47
2023-04-20T08:13:46.259Z,101934.34
2023-04-20T08:16:16.555Z,101945.13
2023-04-20T08:18:43.820Z,101946.31
2023-04-20T08:21:10.944Z,101940.50
2023-04-20T08:23:38.051Z,101938.19
2023-04-20T08:26:05.283Z,101932.31
2023-04-20T08:28:33.792Z,101922.56
2023-04-20T08:31:01.717Z,101926.06
2023-04-20T08:33:28.877Z,101917.75
2023-04-20T08:35:56.108Z,101929.22
2023-04-20T08:38:33.422Z,101924.44
2023-04-20T08:41:01.888Z,101910.22
2023-04-20T08:43:29.578Z,101926.63
2023-04-20T08:46:02.953Z,101928.84
2023-04-20T08:48:38.078Z,101925.63
2023-04-20T08:51:05.770Z,101919.00
2023-04-20T08:53:33.416Z,101909.88
2023-04-20T08:56:00.623Z,101911.13
2023-04-20T08:58:32.367Z,101907.84
2023-04-20T09:01:02.765Z,101900.81
2023-04-20T09:03:39.348Z,101912.63
2023-04-20T09:06:14.128Z,101913.09
2023-04-20T09:08:42.656Z,101911.16
2023-04-20T09:11:26.500Z,101911.63
2023-04-20T09:14:02.683Z,101906.53
2023-04-20T09:16:31.441Z,101900.31
2023-04-20T09:18:58.638Z,101901.13
2023-04-20T09:21:28.041Z,101906.03
2023-04-20T09:23:59.875Z,101900.75
2023-04-20T09:26:27.591Z,101895.59
2023-04-20T09:28:54.697Z,101886.59
2023-04-20T09:31:25.507Z,101887.78
2023-04-20T09:34:10.756Z,101890.19
2023-04-20T09:36:46.127Z,101888.38
2023-04-20T09:39:24.292Z,101891.56
2023-04-20T09:41:53.698Z,101894.38
2023-04-20T09:44:21.201Z,101881.59
2023-04-20T09:46:48.410Z,101870.75
2023-04-20T09:49:15.790Z,101888.72
2023-04-20T09:51:47.218Z,101892.72
2023-04-20T09:54:15.934Z,101877.19
2023-04-20T09:56:43.421Z,101885.25
2023-04-20T09:59:11.710Z,101869.22
2023-04-20T10:01:38.906Z,101874.38
2023-04-20T10:04:14.400Z,101874.50
2023-04-20T10:06:54.824Z,101865.00
2023-04-20T10:09:26.148Z,101865.06
2023-04-20T10:12:04.939Z,101862.78
2023-04-20T10:14:32.040Z,101857.31
2023-04-20T10:17:08.713Z,101860.25
2023-04-20T10:19:47.383Z,101857.03
2023-04-20T10:22:30.718Z,101864.59
2023-04-20T10:24:57.859Z,101858.25
2023-04-20T10:27:24.889Z,101855.16
2023-04-20T10:29:52.541Z,101848.47
2023-04-20T10:32:27.235Z,101842.75
2023-04-20T10:35:02.773Z,101850.25
2023-04-20T10:37:30.188Z,101841.22
2023-04-20T10:39:57.541Z,101839.53
2023-04-20T10:42:26.382Z,101840.31
2023-04-20T10:44:54.764Z,101838.59
2023-04-20T10:47:29.728Z,101839.31
2023-04-20T10:50:26.445Z,101840.78
2023-04-20T10:52:53.948Z,101836.78
2023-04-20T10:55:24.551Z,101839.22
2023-04-20T10:57:53.768Z,101834.66
2023-04-20T11:00:23.935Z,101831.88
2023-04-20T11:02:56.424Z,101841.66
2023-04-20T11:05:27.376Z,101820.38
2023-04-20T11:07:56.478Z,101803.03
2023-04-20T11:10:39.697Z,101815.25
2023-04-20T11:13:07.373Z,101799.50
2023-04-20T11:15:35.234Z,101801.19
2023-04-20T11:18:12.201Z,101796.31
2023-04-20T11:20:55.003Z,101801.38
2023-04-20T11:23:25.296Z,101799.41
2023-04-20T11:25:54.545Z,101788.22
2023-04-20T11:28:22.752Z,101784.75
2023-04-20T11:30:50.789Z,101770.75
2023-04-20T11:33:28.427Z,101789.06
2023-04-20T11:35:56.623Z,101799.88
2023-04-20T11:38:41.714Z,101797.94
2023-04-20T11:41:08.760Z,101796.16
2023-04-20T11:43:36.054Z,101804.72
2023-04-20T11:46:03.471Z,101796.06
2023-04-20T11:48:31.459Z,101786.84
2023-04-20T11:50:58.825Z,101785.81
2023-04-20T11:53:26.775Z,101798.41
2023-04-20T11:55:54.114Z,101798.13
2023-04-20T11:58:21.392Z,101791.34
2023-04-20T12:00:48.467Z,101790.72
2023-04-20T12:03:16.241Z,101798.03
2023-04-20T12:05:43.538Z,101805.66
2023-04-20T12:08:10.614Z,101799.00
2023-04-20T12:10:37.755Z,101791.00
2023-04-20T12:13:04.869Z,101786.50
2023-04-20T12:15:32.353Z,101785.69
2023-04-20T12:17:59.513Z,101795.28
2023-04-20T12:20:26.594Z,101792.47
2023-04-20T12:22:54.830Z,101788.75
2023-04-20T12:25:25.923Z,101792.91
2023-04-20T12:27:53.988Z,101774.78
2023-04-20T12:30:21.059Z,101774.91
2023-04-20T12:32:48.171Z,101771.75
2023-04-20T12:35:15.888Z,101781.72
2023-04-20T12:37:42.978Z,101775.44
2023-04-20T12:40:10.247Z,101769.75
2023-04-20T12:42:37.291Z,101768.38
2023-04-20T12:45:04.590Z,101767.75
2023-04-20T12:47:31.622Z,101770.09
2023-04-20T12:49:58.728Z,101763.72
2023-04-20T12:52:25.792Z,101773.19
2023-04-20T12:54:54.012Z,101763.72
2023-04-20T12:57:21.099Z,101765.38
2023-04-20T12:59:50.945Z,101769.81
2023-04-20T13:02:18.779Z,101762.75
2023-04-20T13:04:47.125Z,101767.41
2023-04-20T13:07:14.243Z,101764.50
2023-04-20T13:09:41.332Z,101756.19
2023-04-20T13:12:08.502Z,101765.16
2023-04-20T13:14:35.560Z,101767.66
2023-04-20T13:17:02.928Z,101763.78
2023-04-20T13:19:31.130Z,101761.16
2023-04-20T13:21:58.319Z,101756.19
2023-04-20T13:24:25.553Z,101765.38
2023-04-20T13:26:57.863Z,101763.22
2023-04-20T13:29:25.784Z,101750.44
2023-04-20T13:31:53.971Z,101748.94
2023-04-20T13:34:21.213Z,101759.44
2023-04-20T13:36:48.714Z,101752.22
2023-04-20T13:39:17.612Z,101748.75
2023-04-20T13:41:44.956Z,101737.56
2023-04-20T13:44:16.339Z,101748.47
2023-04-20T13:46:45.718Z,101743.97
2023-04-20T13:49:13.899Z,101741.88
2023-04-20T13:51:40.934Z,101731.84
2023-04-20T13:54:08.058Z,101731.72
2023-04-20T13:56:35.459Z,101730.38
2023-04-20T13:59:03.962Z,101726.41
2023-04-20T14:01:31.519Z,101731.25
2023-04-20T14:03:59.096Z,101713.84
2023-04-20T14:06:27.704Z,101732.88
2023-04-20T14:08:54.848Z,101720.56
2023-04-20T14:11:23.026Z,101711.91
2023-04-20T14:13:50.132Z,101722.44
2023-04-20T14:16:17.455Z,101715.84
2023-04-20T14:18:45.084Z,101690.31
2023-04-20T14:21:12.085Z,101713.00
2023-04-20T14:23:40.451Z,101719.31
2023-04-20T14:26:07.709Z,101720.97
2023-04-20T14:28:34.797Z,101697.75
2023-04-20T14:31:02.776Z,101713.41
2023-04-20T14:33:29.873Z,101701.84
2023-04-20T14:35:56.931Z,101705.31
2023-04-20T14:38:24.813Z,101703.84
2023-04-20T14:40:53.621Z,101693.44
2023-04-20T14:43:21.017Z,101700.53
2023-04-20T14:45:48.010Z,101681.78
2023-04-20T14:48:15.106Z,101696.91
2023-04-20T14:50:42.271Z,101691.41
2023-04-20T14:53:09.596Z,101685.81
2023-04-20T14:55:47.227Z,101681.06
2023-04-20T14:58:18.288Z,101693.19
2023-04-20T15:00:46.986Z,101704.31
2023-04-20T15:03:14.230Z,101694.47
2023-04-20T15:05:41.464Z,101699.00
2023-04-20T15:08:10.668Z,101693.00
2023-04-20T15:10:38.241Z,101683.53
2023-04-20T15:13:06.148Z,101684.50
2023-04-20T15:15:41.566Z,101682.09
2023-04-20T15:18:17.303Z,101681.94
2023-04-20T15:20:47.229Z,101662.50
2023-04-20T15:23:14.376Z,101672.16
2023-04-20T15:25:41.397Z,101671.06
2023-04-20T15:28:08.473Z,101672.34
2023-04-20T15:30:35.632Z,101660.03
2023-04-20T15:33:05.416Z,101656.34
2023-04-20T15:35:33.793Z,101658.75
2023-04-20T15:38:00.911Z,101667.69
2023-04-20T15:40:27.962Z,101661.81
2023-04-20T15:42:55.798Z,101671.06
2023-04-20T15:45:23.968Z,101673.16
2023-04-20T15:47:51.406Z,101665.22
2023-04-20T15:50:19.562Z,101659.38
2023-04-20T15:52:49.666Z,101669.38
2023-04-20T15:55:17.429Z,101658.78
2023-04-20T15:57:44.902Z,101653.34
2023-04-20T16:00:12.807Z,101643.22
2023-04-20T16:02:40.237Z,101635.81
2023-04-20T16:05:08.025Z,101640.41
2023-04-20T16:07:35.164Z,101653.97
2023-04-20T16:10:03.090Z,101647.53
2023-04-20T16:12:30.341Z,101657.16
2023-04-20T16:14:57.516Z,101654.13
2023-04-20T16:17:25.082Z,101650.44
2023-04-20T16:19:54.356Z,101663.25
2023-04-20T16:22:22.316Z,101664.28
2023-04-20T16:24:49.359Z,101669.00
2023-04-20T16:27:18.772Z,101673.63
2023-04-20T16:29:46.183Z,101666.19
2023-04-20T16:32:13.377Z,101661.47
2023-04-20T16:34:41.140Z,101652.91
2023-04-20T16:37:08.219Z,101664.00
2023-04-20T16:39:36.563Z,101653.84
2023-04-20T16:42:04.513Z,101651.41
2023-04-20T16:44:31.738Z,101646.19
2023-04-20T16:46:58.985Z,101650.44
2023-04-20T16:49:26.054Z,101648.22
2023-04-20T16:51:54.275Z,101653.28
2023-04-20T16:54:21.479Z,101649.72
2023-04-20T16:56:49.844Z,101642.97
2023-04-20T16:59:17.474Z,101649.19
2023-04-20T17:01:44.492Z,101657.41
2023-04-20T17:04:11.889Z,101651.28
2023-04-20T17:06:39.096Z,101643.69
2023-04-20T17:09:07.184Z,101646.91
2023-04-20T17:11:38.072Z,101652.25
2023-04-20T17:14:06.327Z,101650.50
2023-04-20T17:16:33.496Z,101649.28
2023-04-20T17:19:00.791Z,101656.47
2023-04-20T17:21:28.963Z,101658.72
2023-04-20T17:23:56.620Z,101660.53
2023-04-20T17:26:24.265Z,101659.91
2023-04-20T17:28:51.342Z,101646.63
2023-04-20T17:31:18.410Z,101648.84
2023-04-20T17:33:46.018Z,101658.09
2023-04-20T17:36:13.097Z,101663.00
2023-04-20T17:38:40.202Z,101659.44
2023-04-20T17:41:07.285Z,101665.38
2023-04-20T17:43:36.134Z,101659.13
2023-04-20T17:46:03.286Z,101668.44
2023-04-20T17:48:30.483Z,101664.84
2023-04-20T17:50:58.813Z,101666.28
2023-04-20T17:53:26.034Z,101668.91
2023-04-20T17:55:54.208Z,101675.84
2023-04-20T17:58:21.242Z,101680.88
2023-04-20T18:00:48.429Z,101660.03
2023-04-20T18:03:15.754Z,101688.00
2023-04-20T18:05:43.280Z,101690.47
2023-04-20T18:08:10.561Z,101680.13
2023-04-20T18:10:37.822Z,101677.38
2023-04-20T18:13:05.257Z,101686.75
2023-04-20T18:15:32.767Z,101679.56
2023-04-20T18:17:59.986Z,101684.84
2023-04-20T18:20:27.111Z,101691.59
2023-04-20T18:22:55.422Z,101680.09
2023-04-20T18:25:25.886Z,101687.88
2023-04-20T18:27:54.939Z,101687.78
2023-04-20T18:30:23.203Z,101687.66
2023-04-20T18:32:50.269Z,101683.13
2023-04-20T18:35:19.279Z,101674.31
2023-04-20T18:37:47.013Z,101678.69
2023-04-20T18:40:16.075Z,101687.28
2023-04-20T18:42:43.694Z,101682.00
2023-04-20T18:45:13.018Z,101685.38
2023-04-20T18:47:40.163Z,101676.53
2023-04-20T18:50:07.576Z,101681.66
2023-04-20T18:52:34.944Z,101684.91
2023-04-20T18:55:02.538Z,101685.63
2023-04-20T18:57:30.001Z,101693.44
2023-04-20T18:59:57.058Z,101705.44
2023-04-20T19:02:24.469Z,101705.25
2023-04-20T19:04:52.980Z,101710.72
2023-04-20T19:07:20.480Z,101713.97
2023-04-20T19:09:47.548Z,101719.94
2023-04-20T19:12:14.706Z,101723.28
2023-04-20T19:14:41.762Z,101724.84
2023-04-20T19:17:09.000Z,101713.47
2023-04-20T19:19:36.052Z,101709.22
2023-04-20T19:22:04.097Z,101711.47
2023-04-20T19:24:34.329Z,101718.50
2023-04-20T19:27:02.676Z,101715.53
2023-04-20T19:29:29.856Z,101722.41
2023-04-20T19:31:57.014Z,101724.97
2023-04-20T19:34:24.321Z,101716.84
2023-04-20T19:36:52.088Z,101718.56
2023-04-20T19:39:19.645Z,101704.63
2023-04-20T19:41:47.502Z,101709.72
2023-04-20T19:44:18.121Z,101702.56
2023-04-20T19:46:45.435Z,101709.25
2023-04-20T19:49:12.673Z,101710.06
2023-04-20T19:51:39.815Z,101714.44
2023-04-20T19:54:06.828Z,101710.84
2023-04-20T19:56:34.434Z,101703.81
2023-04-20T19:59:01.636Z,101716.63
2023-04-20T20:01:28.737Z,101715.41
2023-04-20T20:03:56.227Z,101729.97
2023-04-20T20:06:23.704Z,101731.56
2023-04-20T20:08:50.882Z,101725.59
2023-04-20T20:11:18.249Z,101722.69
2023-04-20T20:13:45.417Z,101727.66
2023-04-20T20:16:12.602Z,101731.94
2023-04-20T20:18:39.972Z,101723.28
2023-04-20T20:21:07.126Z,101719.63
2023-04-20T20:23:34.155Z,101708.03
2023-04-20T20:26:02.672Z,101719.41
2023-04-20T20:28:29.723Z,101709.06
2023-04-20T20:30:57.188Z,101707.44
2023-04-20T20:33:24.313Z,101708.25
2023-04-20T20:35:53.785Z,101698.78
2023-04-20T20:38:21.463Z,101701.34
2023-04-20T20:40:50.471Z,101702.19
2023-04-20T20:43:18.960Z,101702.97
2023-04-20T20:45:47.521Z,101701.28
2023-04-20T20:48:32.919Z,101695.00
2023-04-20T20:51:00.028Z,101688.06
2023-04-20T20:53:27.087Z,101675.50
2023-04-20T20:55:54.436Z,101691.16
2023-04-20T20:58:22.233Z,101675.41
2023-04-20T21:00:56.916Z,101683.16
2023-04-20T21:03:24.279Z,101674.34
2023-04-20T21:05:55.177Z,101680.38
2023-04-20T21:08:23.582Z,101676.75
2023-04-20T21:10:51.507Z,101668.00
2023-04-20T21:13:19.370Z,101667.84
2023-04-20T21:15:47.951Z,101654.69
2023-04-20T21:18:15.002Z,101671.25
2023-04-20T21:20:44.753Z,101672.78
2023-04-20T21:23:11.839Z,101674.44
2023-04-20T21:25:38.980Z,101670.06
2023-04-20T21:28:06.116Z,101681.91
2023-04-20T21:30:33.212Z,101682.66
2023-04-20T21:33:00.326Z,101673.16
2023-04-20T21:35:27.387Z,101665.97
2023-04-20T21:37:54.540Z,101651.16
2023-04-20T21:40:23.665Z,101678.91
2023-04-20T21:42:50.832Z,101667.69
2023-04-20T21:45:17.882Z,101667.06
2023-04-20T21:47:44.928Z,101656.59
2023-04-20T21:50:11.950Z,101656.50
2023-04-20T21:52:39.003Z,101676.31
2023-04-20T21:55:06.969Z,101669.06
2023-04-20T21:57:33.975Z,101673.63
2023-04-20T22:00:01.004Z,101661.41
2023-04-20T22:02:28.522Z,101674.41
2023-04-20T22:04:56.151Z,101670.06
2023-04-20T22:07:23.888Z,101680.44
2023-04-20T22:09:51.291Z,101683.84
2023-04-20T22:12:32.353Z,101688.19
2023-04-20T22:15:10.701Z,101684.44
2023-04-20T22:17:38.078Z,101676.00
2023-04-20T22:20:07.880Z,101673.41
2023-04-20T22:22:36.186Z,101685.72
2023-04-20T22:25:04.665Z,101686.53
2023-04-20T22:27:32.917Z,101670.81
2023-04-20T22:30:00.485Z,101673.50
2023-04-20T22:32:27.803Z,101661.53
2023-04-20T22:34:54.893Z,101660.69
2023-04-20T22:37:22.234Z,101665.75
2023-04-20T22:39:49.282Z,101669.25
2023-04-20T22:42:16.302Z,101663.94
2023-04-20T22:44:43.374Z,101660.41
2023-04-20T22:47:10.747Z,101657.91
2023-04-20T22:49:37.933Z,101645.69
2023-04-20T22:52:05.123Z,101635.28
2023-04-20T22:54:32.318Z,101645.66
2023-04-20T22:56:59.346Z,101640.44
2023-04-20T22:59:26.386Z,101640.44
2023-04-20T23:01:53.893Z,101642.06
2023-04-20T23:04:21.095Z,101631.75
2023-04-20T23:06:48.216Z,101627.16
2023-04-20T23:09:20.293Z,101621.28
2023-04-20T23:11:48.125Z,101611.78
2023-04-20T23:14:15.256Z,101616.03
2023-04-20T23:16:42.562Z,101610.88
2023-04-20T23:19:09.667Z,101608.34
2023-04-20T23:21:36.730Z,101589.41
2023-04-20T23:24:03.994Z,101599.00
2023-04-20T23:26:31.378Z,101592.88
2023-04-20T23:28:58.508Z,101567.16
2023-04-20T23:31:25.740Z,101557.81
2023-04-20T23:33:53.790Z,101548.13
2023-04-20T23:36:20.966Z,101549.81
2023-04-20T23:38:47.972Z,101563.69
2023-04-20T23:41:15.666Z,101554.28
2023-04-20T23:43:42.938Z,101556.81
2023-04-20T23:46:10.523Z,101574.94
2023-04-20T23:48:37.654Z,101576.53
2023-04-20T23:51:04.838Z,101576.59
2023-04-20T23:53:35.903Z,101567.84
2023-04-20T23:56:03.479Z,101564.31
2023-04-20T23:58:30.946Z,101547.09
